Time;durP1;ratioP1;P1;durP2;ratioP2;P2;SDS_P1;SDS_P2;PMS_P1;PMS_P2;Temp;Humidity;BMP_temperature;BMP_pressure;BME280_temperature;BME280_humidity;BME280_pressure;Samples;Min_cycle;Max_cycle;Signal;HPM_P1;HPM_P2
2023/07/17 00:01:43;;;;;;;6.55;2.30;;;;;;;;;;6210199;23;20074;-64
2023/07/17 00:04:09;;;;;;;6.15;2.53;;;;;;;;;;6210852;23;20017;-64
2023/07/17 00:06:35;;;;;;;8.10;2.70;;;;;;;;;;6210587;23;20313;-64
2023/07/17 00:09:01;;;;;;;9.65;2.67;;;;;;;;;;6210682;23;20023;-64
2023/07/17 00:11:27;;;;;;;4.97;2.20;;;;;;;;;;6210838;23;20040;-64
2023/07/17 00:13:54;;;;;;;6.03;2.40;;;;;;;;;;6211012;23;20016;-64
2023/07/17 00:16:20;;;;;;;6.45;2.63;;;;;;;;;;6213354;23;20009;-64
2023/07/17 00:18:46;;;;;;;6.47;2.30;;;;;;;;;;6214170;23;20016;-64
2023/07/17 00:21:12;;;;;;;5.50;2.35;;;;;;;;;;6213715;23;20047;-64
2023/07/17 00:23:38;;;;;;;5.70;2.15;;;;;;;;;;6213737;23;20024;-64
2023/07/17 00:26:04;;;;;;;6.78;2.35;;;;;;;;;;6214119;23;20475;-64
2023/07/17 00:28:30;;;;;;;9.85;2.50;;;;;;;;;;6213935;23;20028;-64
2023/07/17 00:30:56;;;;;;;6.25;2.55;;;;;;;;;;6186678;23;20017;-65
2023/07/17 00:33:22;;;;;;;6.28;2.40;;;;;;;;;;6186930;23;20051;-65
2023/07/17 00:35:48;;;;;;;5.63;2.20;;;;;;;;;;6213649;23;20013;-65
2023/07/17 00:38:14;;;;;;;4.30;2.05;;;;;;;;;;6213547;23;20023;-65
2023/07/17 00:40:40;;;;;;;7.00;2.47;;;;;;;;;;6214058;23;20012;-65
2023/07/17 00:43:10;;;;;;;4.93;2.30;;;;;;;;;;6213759;23;20073;-65
2023/07/17 00:45:36;;;;;;;6.35;2.13;;;;;;;;;;6186512;23;20012;-65
2023/07/17 00:48:03;;;;;;;7.38;1.90;;;;;;;;;;6213954;23;20017;-65
2023/07/17 00:50:29;;;;;;;6.28;2.35;;;;;;;;;;6214094;23;20012;-65
2023/07/17 00:52:56;;;;;;;6.70;2.15;;;;;;;;;;6213360;23;20098;-64
2023/07/17 00:55:22;;;;;;;6.30;1.95;;;;;;;;;;6214140;23;20084;-65
2023/07/17 00:57:49;;;;;;;11.90;2.80;;;;;;;;;;6213821;23;20013;-65
2023/07/17 01:00:15;;;;;;;5.78;2.03;;;;;;;;;;6213571;23;20047;-64
2023/07/17 01:02:42;;;;;;;7.10;2.08;;;;;;;;;;6213863;23;20088;-64
2023/07/17 01:05:08;;;;;;;4.88;2.10;;;;;;;;;;6213962;23;20015;-64
2023/07/17 01:07:37;;;;;;;6.95;2.25;;;;;;;;;;6213301;23;20016;-64
2023/07/17 01:10:05;;;;;;;6.57;2.17;;;;;;;;;;6213569;23;20021;-64
2023/07/17 01:12:32;;;;;;;4.03;1.70;;;;;;;;;;6187042;23;20317;-64
2023/07/17 01:14:58;;;;;;;7.03;2.00;;;;;;;;;;6213542;23;20009;-64
2023/07/17 01:17:24;;;;;;;7.95;2.30;;;;;;;;;;6187085;23;20020;-64
2023/07/17 01:19:50;;;;;;;6.32;2.17;;;;;;;;;;6213962;23;20072;-64
2023/07/17 01:22:19;;;;;;;5.60;2.10;;;;;;;;;;6213338;23;20084;-64
2023/07/17 01:24:45;;;;;;;8.40;2.50;;;;;;;;;;6213846;23;20021;-64
2023/07/17 01:27:11;;;;;;;6.10;1.98;;;;;;;;;;6212271;23;20016;-64
2023/07/17 01:29:37;;;;;;;7.03;2.13;;;;;;;;;;6185150;23;20340;-64
2023/07/17 01:32:03;;;;;;;6.38;2.47;;;;;;;;;;6185313;23;20016;-64
2023/07/17 01:34:29;;;;;;;11.48;2.08;;;;;;;;;;6212202;23;20017;-64
2023/07/17 01:36:55;;;;;;;8.10;2.60;;;;;;;;;;6211491;23;20047;-64
2023/07/17 01:39:21;;;;;;;9.30;2.47;;;;;;;;;;6212326;23;20012;-64
2023/07/17 01:41:47;;;;;;;8.27;2.22;;;;;;;;;;6185214;23;20013;-64
2023/07/17 01:44:13;;;;;;;8.35;2.17;;;;;;;;;;6211585;23;20044;-64
2023/07/17 01:46:39;;;;;;;4.97;2.15;;;;;;;;;;6212210;23;20016;-64
2023/07/17 01:49:05;;;;;;;6.05;1.80;;;;;;;;;;6212204;23;20021;-64
2023/07/17 01:51:31;;;;;;;6.32;1.83;;;;;;;;;;6211506;23;20527;-64
2023/07/17 01:53:57;;;;;;;7.32;1.88;;;;;;;;;;6185035;23;20013;-64
2023/07/17 01:56:23;;;;;;;4.47;1.70;;;;;;;;;;6184928;23;20462;-64
2023/07/17 01:58:49;;;;;;;7.35;2.13;;;;;;;;;;6211607;23;20012;-64
2023/07/17 02:01:15;;;;;;;6.40;1.90;;;;;;;;;;6212089;23;20466;-64
2023/07/17 02:03:41;;;;;;;6.03;1.95;;;;;;;;;;6211849;23;20016;-64
2023/07/17 02:06:07;;;;;;;4.97;1.80;;;;;;;;;;6184585;23;20017;-64
2023/07/17 02:08:33;;;;;;;4.80;1.35;;;;;;;;;;6211609;23;20022;-64
2023/07/17 02:10:59;;;;;;;7.60;1.70;;;;;;;;;;6211816;23;20550;-64
2023/07/17 02:13:25;;;;;;;3.80;1.70;;;;;;;;;;6184348;23;20027;-64
2023/07/17 02:15:51;;;;;;;4.82;2.03;;;;;;;;;;6211942;23;20436;-64
2023/07/17 02:18:17;;;;;;;4.68;1.48;;;;;;;;;;6212300;23;20123;-64
2023/07/17 02:20:43;;;;;;;6.75;1.70;;;;;;;;;;6211433;23;20023;-64
2023/07/17 02:23:10;;;;;;;5.18;1.98;;;;;;;;;;6211593;23;20017;-64
2023/07/17 02:25:36;;;;;;;6.72;1.73;;;;;;;;;;6185093;23;20017;-64
2023/07/17 02:28:02;;;;;;;7.32;1.92;;;;;;;;;;6211017;23;20027;-64
2023/07/17 02:30:28;;;;;;;4.47;1.67;;;;;;;;;;6211700;23;20092;-64
2023/07/17 02:32:54;;;;;;;5.47;1.58;;;;;;;;;;6211492;23;20070;-64
2023/07/17 02:35:19;;;;;;;8.60;2.03;;;;;;;;;;6211072;23;20422;-64
2023/07/17 02:37:46;;;;;;;7.63;2.13;;;;;;;;;;6211395;23;20012;-64
2023/07/17 02:40:12;;;;;;;8.57;2.33;;;;;;;;;;6184577;23;20099;-64
2023/07/17 02:42:39;;;;;;;5.82;1.60;;;;;;;;;;6211155;23;20021;-64
2023/07/17 02:45:07;;;;;;;5.80;2.25;;;;;;;;;;6211670;23;20392;-64
2023/07/17 02:47:33;;;;;;;6.15;1.88;;;;;;;;;;6211687;23;20032;-64
2023/07/17 02:49:58;;;;;;;6.65;2.22;;;;;;;;;;6211220;23;20067;-64
2023/07/17 02:52:24;;;;;;;6.68;1.95;;;;;;;;;;6211290;23;20419;-64
2023/07/17 02:54:50;;;;;;;9.02;2.40;;;;;;;;;;6210959;23;20020;-64
2023/07/17 02:57:17;;;;;;;5.40;2.05;;;;;;;;;;6209641;23;20008;-64
2023/07/17 02:59:43;;;;;;;8.80;2.45;;;;;;;;;;6211570;23;20084;-64
2023/07/17 03:02:09;;;;;;;7.97;2.22;;;;;;;;;;6211410;23;20467;-64
2023/07/17 03:04:35;;;;;;;7.45;3.00;;;;;;;;;;6209763;23;20052;-64
2023/07/17 03:07:01;;;;;;;5.68;2.58;;;;;;;;;;6210896;23;20023;-64
2023/07/17 03:09:27;;;;;;;6.50;2.42;;;;;;;;;;6211424;23;20008;-64
2023/07/17 03:11:53;;;;;;;9.35;2.90;;;;;;;;;;6211088;23;20075;-64
2023/07/17 03:14:19;;;;;;;8.60;2.55;;;;;;;;;;6210834;23;20434;-64
2023/07/17 03:16:45;;;;;;;11.27;2.45;;;;;;;;;;6211597;23;20308;-64
2023/07/17 03:19:11;;;;;;;12.00;2.42;;;;;;;;;;6211369;23;20522;-64
2023/07/17 03:21:37;;;;;;;6.38;2.40;;;;;;;;;;6210553;23;20012;-64
2023/07/17 03:24:04;;;;;;;9.52;2.40;;;;;;;;;;6184125;23;20091;-64
2023/07/17 03:26:30;;;;;;;9.32;2.40;;;;;;;;;;6184173;23;20123;-64
2023/07/17 03:28:56;;;;;;;13.15;2.63;;;;;;;;;;6210730;23;20020;-64
2023/07/17 03:31:22;;;;;;;9.00;2.20;;;;;;;;;;6211043;23;20013;-64
2023/07/17 03:33:48;;;;;;;7.20;2.10;;;;;;;;;;6184452;23;20026;-64
2023/07/17 03:36:14;;;;;;;6.72;2.03;;;;;;;;;;6183427;23;20063;-64
2023/07/17 03:38:40;;;;;;;11.57;2.75;;;;;;;;;;6211148;23;20018;-64
2023/07/17 03:41:06;;;;;;;6.25;2.60;;;;;;;;;;6211280;23;20048;-64
2023/07/17 03:43:32;;;;;;;10.10;2.83;;;;;;;;;;6210340;23;20016;-64
2023/07/17 03:45:58;;;;;;;10.57;2.70;;;;;;;;;;6211054;23;20317;-64
2023/07/17 03:48:24;;;;;;;10.35;2.53;;;;;;;;;;6211219;23;20047;-64
2023/07/17 03:50:50;;;;;;;11.38;2.47;;;;;;;;;;6210137;23;20095;-64
2023/07/17 03:53:16;;;;;;;7.15;2.38;;;;;;;;;;6183982;23;20011;-64
2023/07/17 03:55:42;;;;;;;7.35;2.15;;;;;;;;;;6210751;23;20017;-64
2023/07/17 03:58:08;;;;;;;6.80;1.98;;;;;;;;;;6210473;23;20067;-64
2023/07/17 04:00:34;;;;;;;9.60;2.33;;;;;;;;;;6210759;23;20436;-64
2023/07/17 04:03:00;;;;;;;7.18;2.35;;;;;;;;;;6210640;23;20013;-64
2023/07/17 04:05:26;;;;;;;10.32;3.00;;;;;;;;;;6210331;23;20048;-64
2023/07/17 04:07:52;;;;;;;10.65;3.05;;;;;;;;;;6210765;23;20020;-64
2023/07/17 04:10:18;;;;;;;11.60;3.17;;;;;;;;;;6210750;23;20055;-64
2023/07/17 04:12:44;;;;;;;8.00;2.05;;;;;;;;;;6210372;23;20016;-64
2023/07/17 04:15:10;;;;;;;4.50;1.83;;;;;;;;;;6210583;23;20071;-64
2023/07/17 04:17:36;;;;;;;11.65;2.70;;;;;;;;;;6210699;23;20013;-64
2023/07/17 04:20:02;;;;;;;9.05;2.50;;;;;;;;;;6208786;23;20020;-64
2023/07/17 04:22:29;;;;;;;8.88;2.83;;;;;;;;;;6210353;23;20017;-64
2023/07/17 04:24:55;;;;;;;7.80;2.47;;;;;;;;;;6210469;23;20059;-64
2023/07/17 04:27:21;;;;;;;8.35;2.38;;;;;;;;;;6210345;23;20020;-64
2023/07/17 04:29:47;;;;;;;9.13;2.88;;;;;;;;;;6210352;23;20013;-64
2023/07/17 04:32:13;;;;;;;9.13;2.47;;;;;;;;;;6210617;23;20012;-64
2023/07/17 04:34:38;;;;;;;9.23;2.58;;;;;;;;;;6210119;23;20012;-64
2023/07/17 04:37:04;;;;;;;9.38;2.92;;;;;;;;;;6210209;23;20028;-64
2023/07/17 04:39:30;;;;;;;8.75;3.03;;;;;;;;;;6184066;23;20091;-64
2023/07/17 04:41:56;;;;;;;7.88;2.58;;;;;;;;;;6210311;23;20580;-64
2023/07/17 04:44:22;;;;;;;7.90;2.47;;;;;;;;;;6210483;23;20387;-64
2023/07/17 04:46:48;;;;;;;7.80;2.40;;;;;;;;;;6210671;23;20055;-64
2023/07/17 04:49:14;;;;;;;9.27;2.80;;;;;;;;;;6209894;23;20017;-64
2023/07/17 04:51:40;;;;;;;7.32;2.47;;;;;;;;;;6210508;23;20020;-64
2023/07/17 04:54:06;;;;;;;13.18;2.55;;;;;;;;;;6210524;23;20012;-64
2023/07/17 04:56:32;;;;;;;9.73;3.42;;;;;;;;;;6210135;23;20546;-64
2023/07/17 04:58:59;;;;;;;7.05;2.50;;;;;;;;;;6208279;23;20324;-64
2023/07/17 05:01:24;;;;;;;8.88;3.10;;;;;;;;;;6183393;23;20020;-64
2023/07/17 05:03:50;;;;;;;5.43;2.40;;;;;;;;;;6211356;23;20019;-64
2023/07/17 05:06:16;;;;;;;8.18;2.72;;;;;;;;;;6212260;23;20017;-64
2023/07/17 05:08:42;;;;;;;9.85;3.38;;;;;;;;;;6212057;23;20021;-64
2023/07/17 05:11:09;;;;;;;11.88;2.80;;;;;;;;;;6211722;23;20070;-64
2023/07/17 05:13:35;;;;;;;8.35;3.05;;;;;;;;;;6211670;23;20013;-64
2023/07/17 05:16:01;;;;;;;10.45;2.83;;;;;;;;;;6212124;23;20459;-64
2023/07/17 05:18:27;;;;;;;8.75;2.83;;;;;;;;;;6211668;23;20012;-64
2023/07/17 05:20:53;;;;;;;9.70;3.28;;;;;;;;;;6210469;23;20047;-64
2023/07/17 05:23:19;;;;;;;12.30;2.97;;;;;;;;;;6185329;23;20410;-64
2023/07/17 05:25:55;;;;;;;7.85;2.85;;;;;;;;;;6211693;23;20039;-64
2023/07/17 05:28:22;;;;;;;13.90;3.22;;;;;;;;;;6212211;23;20435;-64
2023/07/17 05:30:55;;;;;;;13.57;2.92;;;;;;;;;;6212248;23;20012;-64
2023/07/17 05:33:21;;;;;;;7.70;2.90;;;;;;;;;;6211649;23;20008;-64
2023/07/17 05:35:47;;;;;;;11.73;3.13;;;;;;;;;;6211858;23;20020;-64
2023/07/17 05:38:14;;;;;;;8.27;2.90;;;;;;;;;;6212258;23;20424;-64
2023/07/17 05:40:40;;;;;;;10.75;2.92;;;;;;;;;;6211507;23;20036;-64
2023/07/17 05:43:07;;;;;;;13.55;3.60;;;;;;;;;;6212059;23;20082;-64
2023/07/17 05:45:33;;;;;;;6.80;2.67;;;;;;;;;;6212206;23;20068;-64
2023/07/17 05:47:59;;;;;;;11.50;3.17;;;;;;;;;;6211281;23;20027;-64
2023/07/17 05:50:25;;;;;;;11.10;3.50;;;;;;;;;;6211962;23;20026;-64
2023/07/17 05:52:51;;;;;;;10.35;2.83;;;;;;;;;;6211566;23;20019;-64
2023/07/17 05:55:17;;;;;;;9.15;3.63;;;;;;;;;;6184718;23;20009;-64
2023/07/17 05:57:43;;;;;;;7.57;3.30;;;;;;;;;;6211883;23;20382;-64
2023/07/17 06:00:11;;;;;;;16.77;3.50;;;;;;;;;;6211814;23;20058;-64
2023/07/17 06:02:38;;;;;;;12.10;4.15;;;;;;;;;;6184583;23;20332;-64
2023/07/17 06:05:04;;;;;;;14.43;3.65;;;;;;;;;;6211695;23;20028;-64
2023/07/17 06:07:33;;;;;;;13.27;3.33;;;;;;;;;;6211845;23;20021;-64
2023/07/17 06:10:00;;;;;;;11.35;3.42;;;;;;;;;;6211376;23;20099;-64
2023/07/17 06:12:26;;;;;;;13.23;3.55;;;;;;;;;;6210958;23;20044;-64
2023/07/17 06:14:52;;;;;;;12.27;4.18;;;;;;;;;;6211805;23;20387;-64
2023/07/17 06:17:18;;;;;;;10.05;3.55;;;;;;;;;;6211338;23;20344;-64
2023/07/17 06:19:44;;;;;;;12.90;4.25;;;;;;;;;;6211823;23;20013;-64
2023/07/17 06:22:10;;;;;;;11.98;3.63;;;;;;;;;;6211379;23;20020;-64
2023/07/17 06:24:36;;;;;;;11.65;3.80;;;;;;;;;;6211167;23;20031;-64
2023/07/17 06:27:02;;;;;;;11.80;3.78;;;;;;;;;;6211193;23;20014;-64
2023/07/17 06:29:28;;;;;;;15.82;4.55;;;;;;;;;;6212405;23;20436;-64
2023/07/17 06:31:54;;;;;;;12.07;3.60;;;;;;;;;;6212973;23;20477;-65
2023/07/17 06:34:20;;;;;;;11.57;3.90;;;;;;;;;;6211973;23;20048;-64
2023/07/17 06:36:48;;;;;;;11.90;4.00;;;;;;;;;;6187763;23;20094;-65
2023/07/17 06:39:14;;;;;;;11.35;3.85;;;;;;;;;;6185007;23;20371;-65
2023/07/17 06:41:40;;;;;;;12.40;4.22;;;;;;;;;;6176893;23;20439;-64
2023/07/17 06:44:06;;;;;;;14.35;4.30;;;;;;;;;;6212498;23;20040;-64
2023/07/17 06:46:32;;;;;;;13.57;4.53;;;;;;;;;;6185401;23;20021;-64
2023/07/17 06:48:58;;;;;;;14.00;3.40;;;;;;;;;;6212107;23;20039;-64
2023/07/17 06:51:25;;;;;;;12.52;4.43;;;;;;;;;;6184897;23;20096;-64
2023/07/17 06:53:52;;;;;;;9.75;4.38;;;;;;;;;;6185742;23;20013;-64
2023/07/17 06:56:18;;;;;;;15.68;5.25;;;;;;;;;;6182442;23;20689;-64
2023/07/17 06:58:44;;;;;;;13.02;4.53;;;;;;;;;;6212923;23;20064;-64
2023/07/17 07:01:14;;;;;;;16.58;4.93;;;;;;;;;;6185591;23;20572;-64
2023/07/17 07:03:42;;;;;;;16.55;4.30;;;;;;;;;;6185650;23;20563;-64
2023/07/17 07:06:09;;;;;;;15.00;4.88;;;;;;;;;;6212116;23;20116;-64
2023/07/17 07:08:35;;;;;;;16.33;5.38;;;;;;;;;;6209495;23;20040;-64
2023/07/17 07:11:02;;;;;;;16.42;5.28;;;;;;;;;;6209392;23;20103;-64
2023/07/17 07:13:29;;;;;;;17.33;6.68;;;;;;;;;;6212527;23;20009;-64
2023/07/17 07:15:55;;;;;;;12.45;5.40;;;;;;;;;;6210046;23;20009;-64
2023/07/17 07:18:21;;;;;;;14.57;5.13;;;;;;;;;;6211756;23;20010;-64
2023/07/17 07:20:48;;;;;;;12.90;4.93;;;;;;;;;;6211707;23;20191;-64
2023/07/17 07:23:14;;;;;;;15.70;5.15;;;;;;;;;;6211874;23;20047;-64
2023/07/17 07:25:41;;;;;;;15.48;4.75;;;;;;;;;;6210988;23;20038;-64
2023/07/17 07:28:07;;;;;;;18.30;5.57;;;;;;;;;;6211399;23;20021;-64
2023/07/17 07:30:33;;;;;;;16.65;4.90;;;;;;;;;;6211726;23;20020;-63
2023/07/17 07:32:59;;;;;;;14.98;5.18;;;;;;;;;;6211088;23;20017;-64
2023/07/17 07:35:25;;;;;;;14.68;4.40;;;;;;;;;;6211861;23;20027;-64
2023/07/17 07:37:51;;;;;;;13.70;4.63;;;;;;;;;;6211428;23;20024;-64
2023/07/17 07:40:18;;;;;;;13.82;4.18;;;;;;;;;;6211553;23;20436;-64
2023/07/17 07:42:45;;;;;;;12.43;4.80;;;;;;;;;;6211664;23;20095;-64
2023/07/17 07:45:11;;;;;;;15.05;4.88;;;;;;;;;;6211447;23;20062;-64
2023/07/17 07:47:37;;;;;;;12.18;5.10;;;;;;;;;;6210834;23;20048;-64
2023/07/17 07:50:04;;;;;;;14.38;4.78;;;;;;;;;;6184519;23;20017;-64
2023/07/17 07:52:30;;;;;;;15.82;4.72;;;;;;;;;;6211818;23;20020;-64
2023/07/17 07:54:56;;;;;;;12.63;4.38;;;;;;;;;;6211817;23;20013;-64
2023/07/17 07:57:22;;;;;;;11.57;4.90;;;;;;;;;;6211408;23;20013;-64
2023/07/17 07:59:51;;;;;;;12.13;4.25;;;;;;;;;;6184514;23;20017;-64
2023/07/17 08:02:17;;;;;;;10.65;4.10;;;;;;;;;;6211201;23;20096;-64
2023/07/17 08:04:44;;;;;;;10.57;3.85;;;;;;;;;;6183981;23;20420;-63
2023/07/17 08:07:10;;;;;;;13.85;4.50;;;;;;;;;;6210588;23;20391;-64
2023/07/17 08:09:36;;;;;;;13.50;4.35;;;;;;;;;;6207964;23;20008;-64
2023/07/17 08:12:03;;;;;;;11.93;4.70;;;;;;;;;;6211932;23;20223;-64
2023/07/17 08:14:29;;;;;;;12.60;4.38;;;;;;;;;;6184675;23;20067;-64
2023/07/17 08:16:54;;;;;;;13.23;4.53;;;;;;;;;;6184012;23;20443;-64
2023/07/17 08:19:21;;;;;;;10.27;4.45;;;;;;;;;;6213219;23;20060;-64
2023/07/17 08:21:47;;;;;;;11.70;4.70;;;;;;;;;;6210412;23;20794;-64
2023/07/17 08:24:13;;;;;;;14.27;4.88;;;;;;;;;;6211746;23;20471;-64
2023/07/17 08:26:40;;;;;;;8.73;4.22;;;;;;;;;;6185040;23;20017;-64
2023/07/17 08:29:06;;;;;;;10.77;4.88;;;;;;;;;;6210708;23;20017;-64
2023/07/17 08:31:32;;;;;;;8.57;3.90;;;;;;;;;;6184632;23;20016;-64
2023/07/17 08:33:59;;;;;;;15.45;4.63;;;;;;;;;;6185127;23;20066;-64
2023/07/17 08:36:26;;;;;;;13.48;4.72;;;;;;;;;;6185165;23;20070;-64
2023/07/17 08:38:53;;;;;;;10.32;3.80;;;;;;;;;;6213421;23;20188;-64
2023/07/17 08:41:19;;;;;;;16.30;3.78;;;;;;;;;;6214894;23;20020;-64
2023/07/17 08:43:45;;;;;;;18.33;4.45;;;;;;;;;;6187339;23;20059;-64
2023/07/17 08:46:12;;;;;;;13.90;4.43;;;;;;;;;;6187199;23;20043;-63
2023/07/17 08:48:40;;;;;;;13.30;4.28;;;;;;;;;;6213055;23;20019;-64
2023/07/17 08:51:08;;;;;;;12.60;4.80;;;;;;;;;;6216250;23;20052;-63
2023/07/17 08:53:34;;;;;;;12.50;4.25;;;;;;;;;;6213371;23;20062;-64
2023/07/17 08:56:01;;;;;;;12.93;4.70;;;;;;;;;;6214013;23;20659;-64
2023/07/17 08:58:28;;;;;;;11.23;4.70;;;;;;;;;;6212378;23;20040;-63
2023/07/17 09:00:54;;;;;;;17.45;5.38;;;;;;;;;;6201846;23;20023;-64
2023/07/17 09:03:20;;;;;;;14.05;5.90;;;;;;;;;;6212922;23;20020;-63
2023/07/17 09:05:46;;;;;;;13.60;4.90;;;;;;;;;;6212741;23;20451;-63
2023/07/17 09:08:13;;;;;;;11.13;4.85;;;;;;;;;;6211659;23;20029;-64
2023/07/17 09:10:39;;;;;;;11.48;5.70;;;;;;;;;;6212206;23;20021;-63
2023/07/17 09:13:06;;;;;;;13.95;5.07;;;;;;;;;;6209605;23;20019;-64
2023/07/17 09:15:32;;;;;;;11.60;4.82;;;;;;;;;;6212641;23;20501;-63
2023/07/17 09:17:58;;;;;;;16.55;4.78;;;;;;;;;;6212410;23;20469;-62
2023/07/17 09:20:25;;;;;;;12.05;5.22;;;;;;;;;;6210160;23;20390;-63
2023/07/17 09:22:54;;;;;;;9.75;4.40;;;;;;;;;;6212298;23;20016;-63
2023/07/17 09:25:20;;;;;;;11.20;4.15;;;;;;;;;;6185627;23;20047;-61
2023/07/17 09:27:50;;;;;;;11.00;4.68;;;;;;;;;;6212018;23;20415;-65
2023/07/17 09:30:18;;;;;;;13.40;4.50;;;;;;;;;;6211954;23;20016;-65
2023/07/17 09:32:47;;;;;;;9.95;3.50;;;;;;;;;;6213087;23;20062;-65
2023/07/17 09:35:14;;;;;;;9.40;3.75;;;;;;;;;;6185010;23;20344;-65
2023/07/17 09:37:41;;;;;;;9.65;3.75;;;;;;;;;;6205096;23;20096;-66
2023/07/17 09:40:07;;;;;;;12.38;3.83;;;;;;;;;;6204699;23;20435;-66
2023/07/17 09:42:34;;;;;;;9.65;4.10;;;;;;;;;;6212761;23;20012;-66
2023/07/17 09:45:00;;;;;;;9.52;2.90;;;;;;;;;;6212317;23;20012;-66
2023/07/17 09:47:27;;;;;;;10.55;3.67;;;;;;;;;;6209099;23;20055;-66
2023/07/17 09:49:54;;;;;;;12.73;3.67;;;;;;;;;;6185011;23;20048;-66
2023/07/17 09:52:20;;;;;;;12.45;3.55;;;;;;;;;;6211940;23;20012;-66
2023/07/17 09:54:49;;;;;;;11.13;3.03;;;;;;;;;;6185852;23;20586;-66
2023/07/17 09:57:35;;;;;;;11.82;3.42;;;;;;;;;;6211884;23;20008;-66
2023/07/17 10:00:10;;;;;;;9.25;3.15;;;;;;;;;;6210350;23;20014;-66
2023/07/17 10:02:41;;;;;;;10.43;3.42;;;;;;;;;;6185226;23;20759;-66
2023/07/17 10:05:07;;;;;;;7.13;2.90;;;;;;;;;;6185230;23;20020;-66
2023/07/17 10:07:37;;;;;;;6.88;3.00;;;;;;;;;;6211784;23;20012;-67
2023/07/17 10:10:04;;;;;;;7.88;2.97;;;;;;;;;;6183156;23;20020;-68
2023/07/17 10:12:31;;;;;;;5.60;2.80;;;;;;;;;;6184627;23;20012;-67
2023/07/17 10:14:58;;;;;;;6.07;2.83;;;;;;;;;;6184921;23;20013;-68
2023/07/17 10:17:30;;;;;;;6.90;3.50;;;;;;;;;;6211097;23;20490;-67
2023/07/17 10:19:58;;;;;;;6.90;2.30;;;;;;;;;;6211400;23;20021;-66
2023/07/17 10:22:28;;;;;;;8.10;2.75;;;;;;;;;;6210404;23;20013;-66
2023/07/17 10:24:55;;;;;;;6.05;2.47;;;;;;;;;;6211588;23;20020;-69
2023/07/17 10:27:41;;;;;;;5.22;2.33;;;;;;;;;;6211359;23;20647;-66
2023/07/17 10:30:26;;;;;;;8.10;2.63;;;;;;;;;;6209239;23;20036;-66
2023/07/17 10:33:12;;;;;;;4.97;2.60;;;;;;;;;;6211337;23;20020;-63
2023/07/17 10:35:47;;;;;;;11.07;3.00;;;;;;;;;;6211355;23;20436;-65
2023/07/17 10:38:14;;;;;;;5.75;2.67;;;;;;;;;;6210622;23;20079;-64
2023/07/17 10:40:40;;;;;;;8.75;2.50;;;;;;;;;;6211167;23;20016;-65
2023/07/17 10:43:17;;;;;;;5.55;2.80;;;;;;;;;;6211177;23;20027;-64
2023/07/17 10:45:44;;;;;;;10.02;2.58;;;;;;;;;;6210327;23;20016;-64
2023/07/17 10:48:11;;;;;;;7.13;2.47;;;;;;;;;;6211667;23;20555;-64
2023/07/17 10:50:38;;;;;;;5.90;2.97;;;;;;;;;;6211001;23;20055;-64
2023/07/17 10:53:05;;;;;;;6.43;2.53;;;;;;;;;;6210382;23;20019;-65
2023/07/17 10:55:34;;;;;;;6.40;3.15;;;;;;;;;;6183712;23;20023;-65
2023/07/17 10:58:00;;;;;;;10.13;2.92;;;;;;;;;;6210816;23;20044;-65
2023/07/17 11:00:26;;;;;;;5.50;2.38;;;;;;;;;;6210714;23;20093;-66
2023/07/17 11:02:55;;;;;;;8.55;2.70;;;;;;;;;;6210909;23;20053;-64
2023/07/17 11:05:21;;;;;;;6.78;2.60;;;;;;;;;;6210943;23;20087;-66
2023/07/17 11:07:47;;;;;;;6.03;2.70;;;;;;;;;;6183773;23;20493;-65
2023/07/17 11:10:14;;;;;;;5.72;2.30;;;;;;;;;;6210270;23;20017;-63
2023/07/17 11:12:40;;;;;;;6.35;2.47;;;;;;;;;;6209469;23;20067;-65
2023/07/17 11:15:27;;;;;;;4.45;2.25;;;;;;;;;;6211173;23;20013;-65
2023/07/17 11:17:53;;;;;;;5.00;2.53;;;;;;;;;;6209327;23;20028;-67
2023/07/17 11:20:19;;;;;;;8.63;2.33;;;;;;;;;;6210938;23;20463;-65
2023/07/17 11:22:46;;;;;;;7.07;2.65;;;;;;;;;;6209880;23;20104;-64
2023/07/17 11:25:12;;;;;;;7.88;2.42;;;;;;;;;;6211304;23;20090;-65
2023/07/17 11:27:40;;;;;;;7.13;2.40;;;;;;;;;;6210399;23;20023;-65
2023/07/17 11:30:16;;;;;;;5.65;2.17;;;;;;;;;;6182834;23;20096;-64
2023/07/17 11:32:42;;;;;;;7.30;2.17;;;;;;;;;;6210737;23;20013;-64
2023/07/17 11:35:09;;;;;;;8.43;2.30;;;;;;;;;;6210820;23;20839;-63
2023/07/17 11:37:37;;;;;;;5.88;2.67;;;;;;;;;;6210857;23;20024;-64
2023/07/17 11:40:05;;;;;;;5.72;2.38;;;;;;;;;;6211023;23;20016;-64
2023/07/17 11:42:51;;;;;;;5.38;2.42;;;;;;;;;;6210069;23;20115;-64
2023/07/17 11:45:20;;;;;;;9.50;2.63;;;;;;;;;;6210991;23;20075;-64
2023/07/17 11:47:47;;;;;;;7.75;2.97;;;;;;;;;;6210457;23;20059;-65
2023/07/17 11:50:13;;;;;;;6.47;2.20;;;;;;;;;;6209414;23;20026;-65
2023/07/17 11:52:39;;;;;;;6.25;1.90;;;;;;;;;;6210884;23;20063;-64
2023/07/17 11:55:05;;;;;;;8.35;1.95;;;;;;;;;;6210909;23;20063;-63
2023/07/17 11:57:31;;;;;;;8.77;2.08;;;;;;;;;;6210548;23;20008;-66
2023/07/17 12:00:03;;;;;;;4.97;2.00;;;;;;;;;;6210054;23;20020;-65
2023/07/17 12:02:30;;;;;;;7.25;2.40;;;;;;;;;;6210357;23;20052;-65
2023/07/17 12:05:00;;;;;;;4.95;1.90;;;;;;;;;;6209724;23;20012;-64
2023/07/17 12:07:26;;;;;;;4.75;2.40;;;;;;;;;;6211062;23;20070;-65
2023/07/17 12:09:52;;;;;;;7.35;2.00;;;;;;;;;;6210030;23;20533;-65
2023/07/17 12:12:18;;;;;;;5.45;1.70;;;;;;;;;;6210467;23;20016;-65
2023/07/17 12:14:44;;;;;;;5.55;1.90;;;;;;;;;;6210673;23;20020;-65
2023/07/17 12:17:10;;;;;;;6.80;2.13;;;;;;;;;;6210714;23;20016;-64
2023/07/17 12:19:37;;;;;;;5.28;1.92;;;;;;;;;;6183126;23;20587;-63
2023/07/17 12:22:03;;;;;;;4.40;1.95;;;;;;;;;;6210015;23;20067;-65
2023/07/17 12:24:29;;;;;;;6.30;1.90;;;;;;;;;;6211413;23;20016;-66
2023/07/17 12:26:56;;;;;;;6.65;2.40;;;;;;;;;;6210823;23;20044;-64
2023/07/17 12:29:22;;;;;;;4.78;2.55;;;;;;;;;;6210509;23;20016;-65
2023/07/17 12:31:48;;;;;;;3.83;1.75;;;;;;;;;;6210480;23;20466;-65
2023/07/17 12:34:14;;;;;;;5.78;1.90;;;;;;;;;;6210411;23;20024;-65
2023/07/17 12:36:40;;;;;;;4.47;1.85;;;;;;;;;;6210260;23;20298;-66
2023/07/17 12:39:13;;;;;;;9.70;2.00;;;;;;;;;;6210503;23;20471;-66
2023/07/17 12:41:39;;;;;;;3.72;1.60;;;;;;;;;;6210290;23;20020;-66
2023/07/17 12:44:05;;;;;;;4.10;2.25;;;;;;;;;;6210426;23;20012;-66
2023/07/17 12:46:31;;;;;;;5.28;1.85;;;;;;;;;;6210456;23;20020;-66
2023/07/17 12:48:58;;;;;;;6.85;2.30;;;;;;;;;;6183924;23;20028;-66
2023/07/17 12:51:24;;;;;;;5.50;2.15;;;;;;;;;;6210236;23;20444;-66
2023/07/17 12:53:50;;;;;;;12.98;3.55;;;;;;;;;;6210830;23;20082;-66
2023/07/17 12:56:16;;;;;;;7.82;2.67;;;;;;;;;;6211158;23;20034;-66
2023/07/17 12:58:42;;;;;;;10.73;2.97;;;;;;;;;;6209961;23;20013;-66
2023/07/17 13:01:08;;;;;;;7.10;2.53;;;;;;;;;;6210851;23;20023;-65
2023/07/17 13:03:34;;;;;;;8.20;2.67;;;;;;;;;;6210129;23;20013;-65
2023/07/17 13:06:00;;;;;;;5.95;2.42;;;;;;;;;;6209809;23;20017;-64
2023/07/17 13:08:26;;;;;;;5.15;2.05;;;;;;;;;;6209938;23;20023;-66
2023/07/17 13:10:52;;;;;;;4.50;1.85;;;;;;;;;;6209758;23;20432;-65
2023/07/17 13:13:18;;;;;;;3.35;1.95;;;;;;;;;;6210004;23;20023;-65
2023/07/17 13:15:44;;;;;;;7.50;2.60;;;;;;;;;;6209973;23;20363;-64
2023/07/17 13:18:10;;;;;;;6.93;2.40;;;;;;;;;;6209990;23;20009;-65
2023/07/17 13:20:36;;;;;;;4.55;2.33;;;;;;;;;;6209656;23;20055;-65
2023/07/17 13:23:02;;;;;;;5.93;2.03;;;;;;;;;;6210827;23;20016;-64
2023/07/17 13:25:28;;;;;;;6.90;2.47;;;;;;;;;;6210907;23;20025;-65
2023/07/17 13:27:54;;;;;;;6.25;2.70;;;;;;;;;;6211368;23;20082;-65
2023/07/17 13:30:20;;;;;;;7.13;2.60;;;;;;;;;;6211403;23;20335;-64
2023/07/17 13:32:46;;;;;;;5.35;2.20;;;;;;;;;;6210683;23;20023;-66
2023/07/17 13:35:12;;;;;;;4.32;2.35;;;;;;;;;;6211838;23;20071;-64
2023/07/17 13:37:38;;;;;;;5.35;2.13;;;;;;;;;;6212162;23;20014;-64
2023/07/17 13:40:05;;;;;;;4.65;2.03;;;;;;;;;;6211697;23;20301;-64
2023/07/17 13:42:31;;;;;;;6.20;2.15;;;;;;;;;;6211985;23;20009;-64
2023/07/17 13:44:59;;;;;;;7.13;2.40;;;;;;;;;;6211148;23;20012;-64
2023/07/17 13:47:25;;;;;;;5.35;2.42;;;;;;;;;;6212730;23;20016;-65
2023/07/17 13:49:52;;;;;;;4.00;1.95;;;;;;;;;;6211112;23;20062;-63
2023/07/17 13:52:18;;;;;;;7.88;2.35;;;;;;;;;;6212136;23;20013;-64
2023/07/17 13:54:44;;;;;;;4.28;2.30;;;;;;;;;;6210571;23;20016;-64
2023/07/17 13:57:10;;;;;;;5.95;2.33;;;;;;;;;;6211157;23;20812;-64
2023/07/17 13:59:36;;;;;;;8.40;2.67;;;;;;;;;;6212533;23;20012;-63
2023/07/17 14:02:03;;;;;;;6.32;2.67;;;;;;;;;;6212116;23;20059;-64
2023/07/17 14:04:29;;;;;;;5.63;2.40;;;;;;;;;;6211526;23;20103;-64
2023/07/17 14:06:55;;;;;;;5.85;2.40;;;;;;;;;;6212395;23;20020;-65
2023/07/17 14:09:22;;;;;;;6.35;2.25;;;;;;;;;;6212342;23;20016;-66
2023/07/17 14:11:48;;;;;;;10.65;3.05;;;;;;;;;;6211842;23;20043;-66
2023/07/17 14:14:14;;;;;;;5.38;2.70;;;;;;;;;;6211740;23;20116;-64
2023/07/17 14:16:40;;;;;;;6.10;2.75;;;;;;;;;;6212940;23;20537;-64
2023/07/17 14:19:06;;;;;;;6.45;2.95;;;;;;;;;;6211470;23;20044;-67
2023/07/17 14:21:32;;;;;;;8.25;2.75;;;;;;;;;;6211134;23;20016;-64
2023/07/17 14:23:58;;;;;;;5.10;2.60;;;;;;;;;;6213044;23;20092;-65
2023/07/17 14:26:24;;;;;;;5.20;2.47;;;;;;;;;;6213240;23;20017;-64
2023/07/17 14:28:51;;;;;;;4.43;2.50;;;;;;;;;;6213449;23;20028;-64
2023/07/17 14:31:17;;;;;;;6.78;2.53;;;;;;;;;;6213437;23;20017;-64
2023/07/17 14:33:45;;;;;;;4.95;2.45;;;;;;;;;;6212678;23;20752;-65
2023/07/17 14:36:11;;;;;;;6.43;2.60;;;;;;;;;;6212802;23;20375;-65